createdAt,value
2023-02-28T00:02:42.464Z,100321.03
2023-02-28T00:07:45.420Z,100313.13
2023-02-28T00:12:49.916Z,100318.78
2023-02-28T00:17:53.235Z,100318.06
2023-02-28T00:22:56.391Z,100318.19
2023-02-28T00:28:00.644Z,100312.78
2023-02-28T00:33:03.656Z,100304.09
2023-02-28T00:38:06.663Z,100310.91
2023-02-28T00:43:13.100Z,100304.66
2023-02-28T00:48:17.103Z,100309.81
2023-02-28T00:53:20.024Z,100306.28
2023-02-28T00:58:24.279Z,100298.56
2023-02-28T01:03:27.946Z,100298.56
2023-02-28T01:08:30.821Z,100304.91
2023-02-28T01:13:35.155Z,100300.88
2023-02-28T01:18:38.408Z,100303.69
2023-02-28T01:23:41.905Z,100299.13
2023-02-28T01:28:48.593Z,100297.13
2023-02-28T01:33:51.871Z,100290.81
2023-02-28T01:38:55.335Z,100286.78
2023-02-28T01:44:04.735Z,100289.13
2023-02-28T01:49:11.011Z,100292.44
2023-02-28T01:54:18.702Z,100283.97
2023-02-28T01:59:32.263Z,100289.91
2023-02-28T02:04:42.266Z,100286.72
2023-02-28T02:09:45.197Z,100282.41
2023-02-28T02:15:01.553Z,100285.72
2023-02-28T02:20:38.347Z,100285.56
2023-02-28T02:25:47.442Z,100274.03
2023-02-28T02:31:08.128Z,100279.84
2023-02-28T02:36:20.424Z,100274.41
2023-02-28T02:41:30.749Z,100269.69
2023-02-28T02:46:36.823Z,100278.72
2023-02-28T02:51:42.648Z,100283.19
2023-02-28T02:56:49.340Z,100283.78
2023-02-28T03:01:56.858Z,100281.88
2023-02-28T03:07:01.302Z,100279.41
2023-02-28T03:12:05.654Z,100286.94
2023-02-28T03:17:23.165Z,100279.84
2023-02-28T03:22:42.221Z,100281.25
2023-02-28T03:27:57.871Z,100284.44
2023-02-28T03:33:06.479Z,100276.28
2023-02-28T03:38:15.941Z,100267.53
2023-02-28T03:43:25.768Z,100282.34
2023-02-28T03:48:37.835Z,100279.34
2023-02-28T03:53:46.390Z,100284.72
2023-02-28T03:58:55.753Z,100293.22
2023-02-28T04:03:58.741Z,100293.97
2023-02-28T04:09:03.971Z,100299.22
2023-02-28T04:14:08.457Z,100299.47
2023-02-28T04:19:13.705Z,100305.84
2023-02-28T04:24:20.385Z,100308.00
2023-02-28T04:29:25.460Z,100314.72
2023-02-28T04:34:29.558Z,100314.72
2023-02-28T04:39:38.023Z,100317.41
2023-02-28T04:44:40.976Z,100317.41
2023-02-28T04:49:43.929Z,100319.66
2023-02-28T04:54:48.313Z,100315.84
2023-02-28T04:59:51.305Z,100325.28
2023-02-28T05:04:54.293Z,100326.41
2023-02-28T05:09:58.666Z,100324.94
2023-02-28T05:15:02.922Z,100333.44
2023-02-28T05:20:15.315Z,100333.84
2023-02-28T05:25:22.601Z,100332.34
2023-02-28T05:30:25.577Z,100331.63
2023-02-28T05:35:28.827Z,100331.97
2023-02-28T05:40:33.191Z,100333.94
2023-02-28T05:45:36.151Z,100336.41
2023-02-28T05:50:39.119Z,100328.75
2023-02-28T05:55:43.543Z,100338.38
2023-02-28T06:00:46.558Z,100342.59
2023-02-28T06:05:49.479Z,100346.66
2023-02-28T06:10:54.129Z,100353.38
2023-02-28T06:15:57.079Z,100358.47
2023-02-28T06:20:59.962Z,100357.94
2023-02-28T06:26:04.301Z,100369.75
2023-02-28T06:31:11.865Z,100372.31
2023-02-28T06:36:16.298Z,100380.19
2023-02-28T06:41:20.744Z,100393.44
2023-02-28T06:46:24.271Z,100393.09
2023-02-28T06:51:28.468Z,100399.63
2023-02-28T06:56:33.045Z,100405.50
2023-02-28T07:01:36.013Z,100409.50
2023-02-28T07:06:39.256Z,100412.69
2023-02-28T07:11:44.009Z,100412.78
2023-02-28T07:16:46.891Z,100423.63
2023-02-28T07:21:50.145Z,100426.72
2023-02-28T07:26:54.372Z,100426.53
2023-02-28T07:31:57.548Z,100424.34
2023-02-28T07:37:01.066Z,100420.03
2023-02-28T07:42:10.462Z,100422.69
2023-02-28T07:47:13.482Z,100427.38
2023-02-28T07:52:16.387Z,100427.97
2023-02-28T07:57:20.683Z,100415.09
2023-02-28T08:02:23.607Z,100418.13
2023-02-28T08:07:26.546Z,100427.88
2023-02-28T08:12:30.831Z,100421.50
2023-02-28T08:17:35.418Z,100421.59
2023-02-28T08:22:38.504Z,100419.53
2023-02-28T08:27:42.763Z,100424.06
2023-02-28T08:32:45.909Z,100434.88
2023-02-28T08:37:50.008Z,100429.72
2023-02-28T08:42:54.315Z,100425.19
2023-02-28T08:47:57.594Z,100433.84
2023-02-28T08:53:00.804Z,100438.56
2023-02-28T08:58:05.036Z,100428.63
2023-02-28T09:03:10.355Z,100425.84
2023-02-28T09:08:15.704Z,100423.56
2023-02-28T09:13:20.155Z,100424.75
2023-02-28T09:18:23.272Z,100424.25
2023-02-28T09:23:27.058Z,100433.25
2023-02-28T09:28:31.400Z,100427.91
2023-02-28T09:33:35.321Z,100423.75
2023-02-28T09:38:38.300Z,100419.13
2023-02-28T09:43:46.424Z,100416.78
2023-02-28T09:48:51.547Z,100421.59
2023-02-28T09:54:01.289Z,100416.47
2023-02-28T09:59:12.354Z,100413.78
2023-02-28T10:04:28.420Z,100416.97
2023-02-28T10:09:34.799Z,100418.72
2023-02-28T10:14:48.011Z,100412.06
2023-02-28T10:20:01.522Z,100410.09
2023-02-28T10:25:18.323Z,100415.59
2023-02-28T10:30:22.757Z,100419.34
2023-02-28T10:35:28.081Z,100422.66
2023-02-28T10:40:34.671Z,100425.16
2023-02-28T10:45:39.288Z,100418.75
2023-02-28T10:50:46.284Z,100413.31
2023-02-28T10:55:59.463Z,100416.88
2023-02-28T11:01:04.003Z,100413.59
2023-02-28T11:06:09.971Z,100400.19
2023-02-28T11:11:12.931Z,100401.03
2023-02-28T11:16:18.150Z,100395.16
2023-02-28T11:21:29.053Z,100388.53
2023-02-28T11:26:41.803Z,100383.75
2023-02-28T11:31:46.214Z,100384.94
2023-02-28T11:36:50.478Z,100378.06
2023-02-28T11:42:11.675Z,100380.03
2023-02-28T11:47:26.070Z,100367.34
2023-02-28T11:52:42.664Z,100372.09
2023-02-28T11:58:26.749Z,100363.44
2023-02-28T12:03:37.060Z,100354.34
2023-02-28T12:08:50.952Z,100347.03
2023-02-28T12:14:06.004Z,100356.13
2023-02-28T12:19:19.684Z,100349.09
2023-02-28T12:24:41.304Z,100355.69
2023-02-28T12:29:51.449Z,100361.38
2023-02-28T12:35:00.387Z,100356.06
2023-02-28T12:40:07.726Z,100351.22
2023-02-28T12:45:16.870Z,100343.16
2023-02-28T12:50:22.141Z,100339.63
2023-02-28T12:55:34.199Z,100341.09
2023-02-28T13:00:40.331Z,100333.56
2023-02-28T13:06:07.306Z,100339.38
2023-02-28T13:11:26.364Z,100324.38
2023-02-28T13:16:29.616Z,100337.69
2023-02-28T13:21:44.928Z,100342.78
2023-02-28T13:27:33.592Z,100334.41
2023-02-28T13:32:41.184Z,100331.09
2023-02-28T13:37:47.127Z,100334.13
2023-02-28T13:42:51.629Z,100331.09
2023-02-28T13:47:56.884Z,100325.53
2023-02-28T13:53:30.359Z,100317.09
2023-02-28T13:58:50.445Z,100316.94
2023-02-28T14:04:28.015Z,100312.16
2023-02-28T14:09:36.257Z,100310.81
2023-02-28T14:14:58.988Z,100319.75
2023-02-28T14:20:04.207Z,100312.16
2023-02-28T14:25:27.030Z,100307.28
2023-02-28T14:31:05.174Z,100290.91
2023-02-28T14:36:22.623Z,100297.31
2023-02-28T14:41:33.286Z,100290.25
2023-02-28T14:46:40.362Z,100293.38
2023-02-28T14:51:44.138Z,100286.19
2023-02-28T14:56:52.501Z,100284.59
2023-02-28T15:02:20.278Z,100295.31
2023-02-28T15:07:29.281Z,100292.03
2023-02-28T15:12:33.654Z,100294.19
2023-02-28T15:17:37.582Z,100302.13
2023-02-28T15:22:41.291Z,100294.38
2023-02-28T15:27:49.212Z,100300.22
2023-02-28T15:33:06.215Z,100295.09
2023-02-28T15:38:18.317Z,100291.38
2023-02-28T15:43:26.880Z,100292.50
2023-02-28T15:48:32.949Z,100302.47
2023-02-28T15:53:39.755Z,100313.06
2023-02-28T15:58:44.582Z,100306.59
2023-02-28T16:03:50.698Z,100304.78
2023-02-28T16:08:54.205Z,100309.97
2023-02-28T16:13:59.161Z,100302.97
2023-02-28T16:19:02.180Z,100295.06
2023-02-28T16:24:05.309Z,100305.78
2023-02-28T16:29:11.689Z,100302.50
2023-02-28T16:34:14.624Z,100297.25
2023-02-28T16:39:17.508Z,100301.16
2023-02-28T16:44:29.659Z,100304.44
2023-02-28T16:49:32.819Z,100306.25
2023-02-28T16:54:35.724Z,100307.94
2023-02-28T16:59:40.004Z,100315.94
2023-02-28T17:04:42.953Z,100307.75
2023-02-28T17:09:46.764Z,100313.19
2023-02-28T17:14:51.187Z,100318.69
2023-02-28T17:19:54.101Z,100309.19
2023-02-28T17:24:58.711Z,100321.63
2023-02-28T17:30:04.096Z,100323.50
2023-02-28T17:35:08.221Z,100322.00
2023-02-28T17:40:16.786Z,100324.16
2023-02-28T17:45:21.742Z,100314.88
2023-02-28T17:50:24.637Z,100322.53
2023-02-28T17:55:27.720Z,100314.06
2023-02-28T18:00:34.463Z,100315.22
2023-02-28T18:05:38.165Z,100306.44
2023-02-28T18:10:41.123Z,100301.22
2023-02-28T18:15:45.405Z,100297.97
2023-02-28T18:20:49.449Z,100303.41
2023-02-28T18:25:52.354Z,100303.19
2023-02-28T18:30:56.628Z,100311.13
2023-02-28T18:36:00.198Z,100303.63
2023-02-28T18:41:06.206Z,100311.81
2023-02-28T18:46:12.483Z,100305.00
2023-02-28T18:51:17.938Z,100306.63
2023-02-28T18:56:23.181Z,100318.19
2023-02-28T19:01:31.088Z,100299.66
2023-02-28T19:06:34.928Z,100300.16
2023-02-28T19:11:37.984Z,100306.00
2023-02-28T19:16:42.413Z,100311.81
2023-02-28T19:21:45.470Z,100317.06
2023-02-28T19:26:48.584Z,100314.00
2023-02-28T19:31:53.409Z,100316.91
2023-02-28T19:36:56.869Z,100315.19
2023-02-28T19:41:59.869Z,100312.00
2023-02-28T19:47:04.514Z,100312.81
2023-02-28T19:52:11.702Z,100312.00
2023-02-28T19:57:18.522Z,100314.47
2023-02-28T20:02:23.976Z,100317.69
2023-02-28T20:07:27.202Z,100322.41
2023-02-28T20:12:30.277Z,100330.44
2023-02-28T20:17:34.625Z,100329.00
2023-02-28T20:22:38.435Z,100332.94
2023-02-28T20:27:41.520Z,100326.13
2023-02-28T20:32:45.895Z,100324.69
2023-02-28T20:37:49.445Z,100327.91
2023-02-28T20:42:52.373Z,100326.75
2023-02-28T20:47:56.720Z,100331.38
2023-02-28T20:52:59.630Z,100333.06
2023-02-28T20:58:03.028Z,100325.81
2023-02-28T21:03:07.377Z,100330.66
2023-02-28T21:08:10.364Z,100329.31
2023-02-28T21:13:13.325Z,100327.88
2023-02-28T21:18:17.649Z,100326.84
2023-02-28T21:23:20.511Z,100338.22
2023-02-28T21:28:23.410Z,100328.38
2023-02-28T21:33:27.663Z,100328.41
2023-02-28T21:38:30.913Z,100325.34
2023-02-28T21:43:33.912Z,100331.19
2023-02-28T21:48:39.107Z,100339.50
2023-02-28T21:53:42.873Z,100328.88
2023-02-28T21:58:46.329Z,100332.72
2023-02-28T22:03:51.346Z,100327.84
2023-02-28T22:08:55.719Z,100339.25
2023-02-28T22:13:59.664Z,100322.94
2023-02-28T22:19:06.385Z,100320.16
2023-02-28T22:24:10.363Z,100333.38
2023-02-28T22:29:13.357Z,100326.59
2023-02-28T22:34:17.601Z,100330.94
2023-02-28T22:39:21.427Z,100322.06
2023-02-28T22:44:24.424Z,100320.34
2023-02-28T22:49:28.887Z,100324.00
2023-02-28T22:54:31.784Z,100324.22
2023-02-28T22:59:34.657Z,100334.56
2023-02-28T23:04:39.408Z,100336.94
2023-02-28T23:09:42.518Z,100330.72
2023-02-28T23:14:45.430Z,100332.56
2023-02-28T23:19:49.693Z,100333.69
2023-02-28T23:24:54.493Z,100337.50
2023-02-28T23:29:57.499Z,100336.78
2023-02-28T23:35:02.645Z,100339.91
2023-02-28T23:40:08.614Z,100338.97
2023-02-28T23:45:12.225Z,100350.84
2023-02-28T23:50:17.609Z,100344.81
2023-02-28T23:55:21.119Z,100347.78
